Portada
METAR-TAF:

METAR-TAF

Aeroports :

Emporia-Greensville Regional Airport

Emporia, Virgínia, Estats Units d'Amèrica

latitud: 36-41-13N, longitud: 077-28-58W, altitud: 39 m

Observació

L'informe es va fer fa 8 minuts, a les 23:15 UTC
Vent calma
Temperatura 28°C
Humitat 79%
Pressió 1019 hPa
Visibilitat: 16.1 km
Cel ennuvolat a una alçada de 3400 ft
Cel ennuvolat a una alçada de 4300 ft
tempesta a les proximitats

METAR: KEMV 072315Z AUTO 00000KT 10SM VCTS BKN034 BKN043 28/24 A3008 RMK AO2 LTG DSNT SW AND W T02800235

Hora: 19:23 (23:23 UTC)


TAF: manca

Observacions i pronòstics meteorològics de més de 4000 aeroports (METAR i TAF).

Les estacions disponibles són els punts grocs i vermells al mapa.

Posi el ratolí al punt desitjat per veure el nom de l'estació.

Feu clic per veure les observacions i els pronòstics meteorològics.

Per canviar el mapa: feu clic els botons verds amb una creu de color negre per apropar; al botó verd amb un guió per allunyar la imatge; o en les fletxes verdes per a mapes adjacents.


METAR-TAF: